Lagoa, Portugal
Current Conditions -  °F | °C
As of 11:30 PM on Monday 26 Jan 2015 (Local Time) from LPFR Reporting Station
Clear Clear  
Wind Chill: 48°   Ceiling: Unl
Heat Index: 48°   Visibility: 6mi
Dew Point: 41°   Wind: 3mph
Humidity: 76%   Direction: 280°W
Pressure: 30.36"   Gusts: NA
Location:  37.14°N, 8.45°W
Report Text: LPFR 270030Z 28003KT 230V320 CAVOK 09/05 Q1028
Loading
Personal Weather Stations






























Interactive Weather Map New forecast layout! Learn more

10-Day Weather Forecast

Advertisements
Track Severe Weather on mobile